createdAt,value
2024-01-15T00:00:43.379Z,63.90
2024-01-15T00:01:43.298Z,61.20
2024-01-15T00:02:43.229Z,66.80
2024-01-15T00:03:45.038Z,60.40
2024-01-15T00:04:43.266Z,62.40
2024-01-15T00:05:43.267Z,62.50
2024-01-15T00:06:43.260Z,62.90
2024-01-15T00:07:43.203Z,65.90
2024-01-15T00:08:43.171Z,65.80
2024-01-15T00:09:43.171Z,58.70
2024-01-15T00:10:43.133Z,61.70
2024-01-15T00:11:43.147Z,66.40
2024-01-15T00:12:43.174Z,64.20
2024-01-15T00:13:43.137Z,66.70
2024-01-15T00:14:43.073Z,65.00
2024-01-15T00:15:43.182Z,63.30
2024-01-15T00:16:43.080Z,63.90
2024-01-15T00:17:43.129Z,67.90
2024-01-15T00:18:43.153Z,67.80
2024-01-15T00:19:43.267Z,66.30
2024-01-15T00:20:43.018Z,65.10
2024-01-15T00:21:43.099Z,67.60
2024-01-15T00:22:42.979Z,65.30
2024-01-15T00:23:42.997Z,63.80
2024-01-15T00:24:42.998Z,71.30
2024-01-15T00:25:42.981Z,68.00
2024-01-15T00:26:42.910Z,61.20
2024-01-15T00:27:43.129Z,64.80
2024-01-15T00:28:42.883Z,61.70
2024-01-15T00:29:42.907Z,68.40
2024-01-15T00:30:42.943Z,67.50
2024-01-15T00:31:42.947Z,66.20
2024-01-15T00:32:42.897Z,68.40
2024-01-15T00:33:42.972Z,66.00
2024-01-15T00:34:42.944Z,63.90
2024-01-15T00:35:42.836Z,66.30
2024-01-15T00:36:42.848Z,67.50
2024-01-15T00:37:42.804Z,67.80
2024-01-15T00:38:42.777Z,70.70
2024-01-15T00:39:42.841Z,70.50
2024-01-15T00:40:42.787Z,64.50
2024-01-15T00:41:42.743Z,69.50
2024-01-15T00:42:42.771Z,70.20
2024-01-15T00:43:42.710Z,67.80
2024-01-15T00:44:43.458Z,67.00
2024-01-15T00:45:42.820Z,67.10
2024-01-15T00:46:42.660Z,68.30
2024-01-15T00:47:42.786Z,68.20
2024-01-15T00:48:42.877Z,66.80
2024-01-15T00:49:42.726Z,68.80
2024-01-15T00:50:42.693Z,65.40
2024-01-15T00:51:42.751Z,67.10
2024-01-15T00:52:43.614Z,70.90
2024-01-15T00:53:42.601Z,67.90
2024-01-15T00:54:43.555Z,75.20
2024-01-15T00:55:42.568Z,67.50
2024-01-15T00:56:42.574Z,70.30
2024-01-15T00:57:42.547Z,67.20
2024-01-15T00:58:42.531Z,68.20
2024-01-15T00:59:42.514Z,73.80
2024-01-15T01:00:42.692Z,66.90
2024-01-15T01:01:42.523Z,66.50
2024-01-15T01:02:42.543Z,67.10
2024-01-15T01:03:42.483Z,70.40
2024-01-15T01:04:42.443Z,70.70
2024-01-15T01:05:42.494Z,69.60
2024-01-15T01:06:42.510Z,67.90
2024-01-15T01:07:42.450Z,70.30
2024-01-15T01:08:42.416Z,71.40
2024-01-15T01:09:42.400Z,69.50
2024-01-15T01:10:42.417Z,68.40
2024-01-15T01:11:42.333Z,73.80
2024-01-15T01:12:42.389Z,68.70
2024-01-15T01:13:42.329Z,71.70
2024-01-15T01:14:42.347Z,70.90
2024-01-15T01:15:42.372Z,73.90
2024-01-15T01:16:42.324Z,70.50
2024-01-15T01:17:42.383Z,72.90
2024-01-15T01:18:42.535Z,69.70
2024-01-15T01:19:42.366Z,65.20
2024-01-15T01:20:42.354Z,68.70
2024-01-15T01:21:42.305Z,69.30
2024-01-15T01:22:42.266Z,72.00
2024-01-15T01:23:42.218Z,70.00
2024-01-15T01:24:42.244Z,72.00
2024-01-15T01:25:42.236Z,70.40
2024-01-15T01:26:42.202Z,69.00
2024-01-15T01:27:42.248Z,69.60
2024-01-15T01:28:42.185Z,67.50
2024-01-15T01:29:42.152Z,69.40
2024-01-15T01:30:42.254Z,66.00
2024-01-15T01:31:42.225Z,70.20
2024-01-15T01:32:42.207Z,66.70
2024-01-15T01:33:42.264Z,69.80
2024-01-15T01:34:42.192Z,67.90
2024-01-15T01:35:42.070Z,69.30
2024-01-15T01:36:42.138Z,67.70
2024-01-15T01:37:42.055Z,70.80
2024-01-15T01:38:42.059Z,70.20
2024-01-15T01:39:42.059Z,69.20
2024-01-15T01:40:42.004Z,69.30
2024-01-15T01:41:41.990Z,64.70
2024-01-15T01:42:42.054Z,67.10
2024-01-15T01:43:41.972Z,69.60
2024-01-15T01:44:41.978Z,67.20
2024-01-15T01:45:42.022Z,67.20
2024-01-15T01:46:41.973Z,67.00
2024-01-15T01:47:41.994Z,66.50
2024-01-15T01:48:42.024Z,63.30
2024-01-15T01:49:41.997Z,68.10
2024-01-15T01:50:41.893Z,68.60
2024-01-15T01:51:41.937Z,69.10
2024-01-15T01:52:41.880Z,68.20
2024-01-15T01:53:41.837Z,69.00
2024-01-15T01:54:41.914Z,65.10
2024-01-15T01:55:41.812Z,68.80
2024-01-15T01:56:41.840Z,62.00
2024-01-15T01:57:41.885Z,64.70
2024-01-15T01:58:41.792Z,67.30
2024-01-15T01:59:41.768Z,67.70
2024-01-15T02:00:41.809Z,63.00
2024-01-15T02:01:41.840Z,63.60
2024-01-15T02:02:41.763Z,64.70
2024-01-15T02:03:41.804Z,63.90
2024-01-15T02:04:41.775Z,61.10
2024-01-15T02:05:41.740Z,57.30
2024-01-15T02:06:41.778Z,62.10
2024-01-15T02:07:41.682Z,61.80
2024-01-15T02:08:41.656Z,61.50
2024-01-15T02:09:41.673Z,64.90
2024-01-15T02:10:41.633Z,63.60
2024-01-15T02:11:41.600Z,65.10
2024-01-15T02:12:41.712Z,60.20
2024-01-15T02:13:41.589Z,58.90
2024-01-15T02:14:41.570Z,59.30
2024-01-15T02:15:41.657Z,60.70
2024-01-15T02:16:41.597Z,58.90
2024-01-15T02:17:41.542Z,60.70
2024-01-15T02:18:41.648Z,60.60
2024-01-15T02:19:41.520Z,60.40
2024-01-15T02:20:41.517Z,61.50
2024-01-15T02:21:41.530Z,58.50
2024-01-15T02:22:41.495Z,57.70
2024-01-15T02:23:41.454Z,59.50
2024-01-15T02:24:41.463Z,57.70
2024-01-15T02:25:41.469Z,54.40
2024-01-15T02:26:41.454Z,60.40
2024-01-15T02:27:41.458Z,57.60
2024-01-15T02:28:41.448Z,61.60
2024-01-15T02:29:41.400Z,54.80
2024-01-15T02:30:41.521Z,56.50
2024-01-15T02:31:41.530Z,59.20
2024-01-15T02:32:41.436Z,57.30
2024-01-15T02:33:41.416Z,56.50
2024-01-15T02:34:41.424Z,57.40
2024-01-15T02:35:41.340Z,54.00
2024-01-15T02:36:41.313Z,56.10
2024-01-15T02:37:41.252Z,56.90
2024-01-15T02:38:41.274Z,52.40
2024-01-15T02:39:41.300Z,56.00
2024-01-15T02:40:41.308Z,54.30
2024-01-15T02:41:41.210Z,61.00
2024-01-15T02:42:41.267Z,58.30
2024-01-15T02:43:41.223Z,54.60
2024-01-15T02:44:41.178Z,59.40
2024-01-15T02:45:41.253Z,58.30
2024-01-15T02:46:41.165Z,57.30
2024-01-15T02:47:41.273Z,55.00
2024-01-15T02:48:41.253Z,57.30
2024-01-15T02:49:41.204Z,50.90
2024-01-15T02:50:41.123Z,52.00
2024-01-15T02:51:41.082Z,55.50
2024-01-15T02:52:41.124Z,59.50
2024-01-15T02:53:41.069Z,52.60
2024-01-15T02:54:41.133Z,56.10
2024-01-15T02:55:41.054Z,56.90
2024-01-15T02:56:41.034Z,55.60
2024-01-15T02:57:41.121Z,61.10
2024-01-15T02:58:41.036Z,54.10
2024-01-15T02:59:41.007Z,53.30
2024-01-15T03:00:41.141Z,61.50
2024-01-15T03:01:41.027Z,57.30
2024-01-15T03:02:43.048Z,56.00
2024-01-15T03:03:41.108Z,58.10
2024-01-15T03:04:40.974Z,57.60
2024-01-15T03:05:40.942Z,57.20
2024-01-15T03:06:40.989Z,53.10
2024-01-15T03:07:40.889Z,56.60
2024-01-15T03:08:40.915Z,53.20
2024-01-15T03:09:40.918Z,51.30
2024-01-15T03:10:40.871Z,57.00
2024-01-15T03:11:40.843Z,54.80
2024-01-15T03:12:40.919Z,52.00
2024-01-15T03:13:40.858Z,58.00
2024-01-15T03:14:40.813Z,55.70
2024-01-15T03:15:40.853Z,56.60
2024-01-15T03:16:40.784Z,52.80
2024-01-15T03:17:40.799Z,54.80
2024-01-15T03:18:40.856Z,58.40
2024-01-15T03:19:40.852Z,56.90
2024-01-15T03:20:40.766Z,56.70
2024-01-15T03:21:40.740Z,54.00
2024-01-15T03:22:40.732Z,51.70
2024-01-15T03:23:40.741Z,57.90
2024-01-15T03:24:40.774Z,53.20
2024-01-15T03:25:40.681Z,55.10
2024-01-15T03:26:40.668Z,57.00
2024-01-15T03:27:40.696Z,55.20
2024-01-15T03:28:40.675Z,55.70
2024-01-15T03:29:40.636Z,53.90
2024-01-15T03:30:40.721Z,59.80
2024-01-15T03:31:40.704Z,52.20
2024-01-15T03:32:40.636Z,56.60
2024-01-15T03:33:40.646Z,59.10
2024-01-15T03:34:40.767Z,57.40
2024-01-15T03:35:40.541Z,55.00
2024-01-15T03:36:40.599Z,53.70
2024-01-15T03:37:40.510Z,54.80
2024-01-15T03:38:40.538Z,58.60
2024-01-15T03:39:40.542Z,54.10
2024-01-15T03:40:40.737Z,56.20
2024-01-15T03:41:40.483Z,55.20
2024-01-15T03:42:40.516Z,53.90
2024-01-15T03:43:40.461Z,54.80
2024-01-15T03:44:40.466Z,58.00
2024-01-15T03:45:40.421Z,52.70
2024-01-15T03:46:40.456Z,54.70
2024-01-15T03:47:40.430Z,54.10
2024-01-15T03:48:40.533Z,50.00
2024-01-15T03:49:40.538Z,54.80
2024-01-15T03:50:40.390Z,56.50
2024-01-15T03:51:40.363Z,55.40
2024-01-15T03:52:40.358Z,59.20
2024-01-15T03:53:40.338Z,56.70
2024-01-15T03:54:40.352Z,58.20
2024-01-15T03:55:40.307Z,54.10
2024-01-15T03:56:40.284Z,52.60
2024-01-15T03:57:40.277Z,55.40
2024-01-15T03:58:40.263Z,56.90
2024-01-15T03:59:40.251Z,54.30
2024-01-15T04:00:40.288Z,53.90
2024-01-15T04:01:40.237Z,56.80
2024-01-15T04:02:40.196Z,56.10
2024-01-15T04:03:40.400Z,53.70
2024-01-15T04:04:40.304Z,56.90
2024-01-15T04:05:40.178Z,59.80
2024-01-15T04:06:40.196Z,60.00
2024-01-15T04:07:40.137Z,56.10
2024-01-15T04:08:40.185Z,60.60
2024-01-15T04:09:40.179Z,56.10
2024-01-15T04:10:40.506Z,59.20
2024-01-15T04:11:40.081Z,57.30
2024-01-15T04:12:40.098Z,59.10
2024-01-15T04:13:42.678Z,61.80
2024-01-15T04:14:40.067Z,61.40
2024-01-15T04:15:40.048Z,58.80
2024-01-15T04:16:40.065Z,61.70
2024-01-15T04:17:40.055Z,57.20
2024-01-15T04:18:40.109Z,56.20
2024-01-15T04:19:40.026Z,59.70
2024-01-15T04:20:39.970Z,59.40
2024-01-15T04:21:40.001Z,60.10
2024-01-15T04:22:39.988Z,60.80
2024-01-15T04:23:39.917Z,57.60
2024-01-15T04:24:39.962Z,57.60
2024-01-15T04:25:39.890Z,57.30
2024-01-15T04:26:39.895Z,56.80
2024-01-15T04:27:39.905Z,57.30
2024-01-15T04:28:39.896Z,55.10
2024-01-15T04:29:41.526Z,61.10
2024-01-15T04:30:40.046Z,52.20
2024-01-15T04:31:40.658Z,59.30
2024-01-15T04:32:39.888Z,58.10
2024-01-15T04:33:39.881Z,54.30
2024-01-15T04:34:39.935Z,56.90
2024-01-15T04:35:39.799Z,57.10
2024-01-15T04:36:39.892Z,56.10
2024-01-15T04:37:39.785Z,67.80
2024-01-15T04:38:39.776Z,59.60
2024-01-15T04:39:39.744Z,58.60
2024-01-15T04:40:39.723Z,57.40
2024-01-15T04:41:39.697Z,56.50
2024-01-15T04:42:39.739Z,57.80
2024-01-15T04:43:39.713Z,58.60
2024-01-15T04:44:39.676Z,60.10
2024-01-15T04:45:39.682Z,58.50
2024-01-15T04:46:39.665Z,59.80
2024-01-15T04:47:39.641Z,64.60
2024-01-15T04:48:39.812Z,61.60
2024-01-15T04:49:39.603Z,60.60
2024-01-15T04:50:39.609Z,61.40
2024-01-15T04:51:39.639Z,62.40
2024-01-15T04:52:39.611Z,62.80
2024-01-15T04:53:39.542Z,61.80
2024-01-15T04:54:39.624Z,61.10
2024-01-15T04:55:39.522Z,60.50
2024-01-15T04:56:39.574Z,62.10
2024-01-15T04:57:39.545Z,64.00
2024-01-15T04:58:39.533Z,63.50
2024-01-15T04:59:39.484Z,65.20
2024-01-15T05:00:39.664Z,60.20
2024-01-15T05:01:39.462Z,63.60
2024-01-15T05:02:39.493Z,59.70
2024-01-15T05:03:39.445Z,62.20
2024-01-15T05:04:39.510Z,58.40
2024-01-15T05:05:39.457Z,63.00
2024-01-15T05:06:39.419Z,61.70
2024-01-15T05:07:39.390Z,61.00
2024-01-15T05:08:39.361Z,58.70
2024-01-15T05:09:39.441Z,57.00
2024-01-15T05:10:39.340Z,64.10
2024-01-15T05:11:39.351Z,60.70
2024-01-15T05:12:39.394Z,60.40
2024-01-15T05:13:39.339Z,60.70
2024-01-15T05:14:39.305Z,59.70
2024-01-15T05:15:39.408Z,64.40
2024-01-15T05:16:39.262Z,58.60
2024-01-15T05:17:39.349Z,59.90
2024-01-15T05:18:39.302Z,63.50
2024-01-15T05:19:39.499Z,59.30
2024-01-15T05:20:39.353Z,55.00
2024-01-15T05:21:39.298Z,52.60
2024-01-15T05:22:39.197Z,54.20
2024-01-15T05:23:39.201Z,57.00
2024-01-15T05:24:39.174Z,59.10
2024-01-15T05:25:39.235Z,56.60
2024-01-15T05:26:39.141Z,61.20
2024-01-15T05:27:39.224Z,57.90
2024-01-15T05:28:39.147Z,61.10
2024-01-15T05:29:39.131Z,55.70
2024-01-15T05:30:39.166Z,56.90
2024-01-15T05:31:39.270Z,59.60
2024-01-15T05:32:39.101Z,60.50
2024-01-15T05:33:39.187Z,54.90
2024-01-15T05:34:39.156Z,59.50
2024-01-15T05:35:39.073Z,57.10
2024-01-15T05:36:39.006Z,60.30
2024-01-15T05:37:39.047Z,60.00
2024-01-15T05:38:38.966Z,59.30
2024-01-15T05:39:39.027Z,61.20
2024-01-15T05:40:38.972Z,56.10
2024-01-15T05:41:38.959Z,59.80
2024-01-15T05:42:38.980Z,60.60
2024-01-15T05:43:38.954Z,56.70
2024-01-15T05:44:38.933Z,57.50
2024-01-15T05:45:38.920Z,61.00
2024-01-15T05:46:38.882Z,60.10
2024-01-15T05:47:38.971Z,61.20
2024-01-15T05:48:38.998Z,70.00
2024-01-15T05:49:39.108Z,58.70
2024-01-15T05:50:38.849Z,62.00
2024-01-15T05:51:38.895Z,62.80
2024-01-15T05:52:38.785Z,65.40
2024-01-15T05:53:38.829Z,63.00
2024-01-15T05:54:38.789Z,62.60
2024-01-15T05:55:38.791Z,65.40
2024-01-15T05:56:38.800Z,59.60
2024-01-15T05:57:38.793Z,64.60
2024-01-15T05:58:38.739Z,61.30
2024-01-15T05:59:38.771Z,60.30
2024-01-15T06:00:38.776Z,65.00
2024-01-15T06:01:38.857Z,61.50
2024-01-15T06:02:38.672Z,60.90
2024-01-15T06:03:38.777Z,62.00
2024-01-15T06:04:38.744Z,63.90
2024-01-15T06:05:38.722Z,59.60
2024-01-15T06:06:38.671Z,61.60
2024-01-15T06:07:38.631Z,63.80
2024-01-15T06:08:38.629Z,65.10
2024-01-15T06:09:38.623Z,62.50
2024-01-15T06:10:38.599Z,64.90
2024-01-15T06:11:38.606Z,64.00
2024-01-15T06:12:38.635Z,63.90
2024-01-15T06:13:38.554Z,64.70
2024-01-15T06:14:38.539Z,61.50
2024-01-15T06:15:38.567Z,63.70
2024-01-15T06:16:38.500Z,67.40
2024-01-15T06:17:38.551Z,67.70
2024-01-15T06:18:38.666Z,66.10
2024-01-15T06:19:38.585Z,63.70
2024-01-15T06:20:38.445Z,63.40
2024-01-15T06:21:38.480Z,69.40
2024-01-15T06:22:38.470Z,60.40
2024-01-15T06:23:38.464Z,60.70
2024-01-15T06:24:38.520Z,66.80
2024-01-15T06:25:38.404Z,58.70
2024-01-15T06:26:38.372Z,64.50
2024-01-15T06:27:38.411Z,63.20
2024-01-15T06:28:38.371Z,65.70
2024-01-15T06:29:38.384Z,66.40
2024-01-15T06:30:38.406Z,63.00
2024-01-15T06:31:38.482Z,64.50
2024-01-15T06:32:38.326Z,66.10
2024-01-15T06:33:38.550Z,64.60
2024-01-15T06:34:38.308Z,59.50
2024-01-15T06:35:38.314Z,69.60
2024-01-15T06:36:38.280Z,64.30
2024-01-15T06:37:38.258Z,62.80
2024-01-15T06:38:38.245Z,62.20
2024-01-15T06:39:39.005Z,63.10
2024-01-15T06:40:38.171Z,63.70
2024-01-15T06:41:38.257Z,64.60
2024-01-15T06:42:38.310Z,58.30
2024-01-15T06:43:38.184Z,60.90
2024-01-15T06:44:38.133Z,67.10
2024-01-15T06:45:38.184Z,67.20
2024-01-15T06:46:38.131Z,61.70
2024-01-15T06:47:38.169Z,59.50
2024-01-15T06:48:38.176Z,61.90
2024-01-15T06:49:38.154Z,69.00
2024-01-15T06:50:38.056Z,60.80
2024-01-15T06:51:38.126Z,67.70
2024-01-15T06:52:38.061Z,64.30
2024-01-15T06:53:38.056Z,60.60
2024-01-15T06:54:38.034Z,63.20
2024-01-15T06:55:38.048Z,62.40
2024-01-15T06:56:37.998Z,67.30
2024-01-15T06:57:38.046Z,68.10
2024-01-15T06:58:37.989Z,69.00
2024-01-15T06:59:37.976Z,71.30
2024-01-15T07:00:37.988Z,69.80
2024-01-15T07:01:38.026Z,66.20
2024-01-15T07:02:37.978Z,66.90
2024-01-15T07:03:38.025Z,66.40
2024-01-15T07:04:40.561Z,63.90
2024-01-15T07:05:37.936Z,64.00
2024-01-15T07:06:37.908Z,67.30
2024-01-15T07:07:37.904Z,65.80
2024-01-15T07:08:37.841Z,64.90
2024-01-15T07:09:37.917Z,64.10
2024-01-15T07:10:37.910Z,68.00
2024-01-15T07:11:37.881Z,64.30
2024-01-15T07:12:37.894Z,64.40
2024-01-15T07:13:37.808Z,59.60
2024-01-15T07:14:37.791Z,60.90
2024-01-15T07:15:37.822Z,63.90
2024-01-15T07:16:38.812Z,60.00
2024-01-15T07:17:37.793Z,63.20
2024-01-15T07:18:37.914Z,63.90
2024-01-15T07:19:37.993Z,59.70
2024-01-15T07:20:37.680Z,59.20
2024-01-15T07:21:37.778Z,60.10
2024-01-15T07:22:37.685Z,60.30
2024-01-15T07:23:37.697Z,58.70
2024-01-15T07:24:37.698Z,61.50
2024-01-15T07:25:37.681Z,63.80
2024-01-15T07:26:37.627Z,62.90
2024-01-15T07:27:37.672Z,60.80
2024-01-15T07:28:37.634Z,57.40
2024-01-15T07:29:37.719Z,57.90
2024-01-15T07:30:37.643Z,57.40
2024-01-15T07:31:38.015Z,59.20
2024-01-15T07:32:37.572Z,58.10
2024-01-15T07:33:37.610Z,57.40
2024-01-15T07:34:37.665Z,57.00
2024-01-15T07:35:38.505Z,54.80
2024-01-15T07:36:37.544Z,59.80
2024-01-15T07:37:37.518Z,58.80
2024-01-15T07:38:37.478Z,59.80
2024-01-15T07:39:37.562Z,61.20
2024-01-15T07:40:37.427Z,59.90
2024-01-15T07:41:37.455Z,53.90
2024-01-15T07:42:37.450Z,52.70
2024-01-15T07:43:37.431Z,56.20
2024-01-15T07:44:37.948Z,54.90
2024-01-15T07:45:37.421Z,49.90
2024-01-15T07:46:37.964Z,60.20
2024-01-15T07:47:37.404Z,73.90
2024-01-15T07:48:37.442Z,47.80
2024-01-15T07:49:37.532Z,47.70
2024-01-15T07:50:37.311Z,51.90
2024-01-15T07:51:37.352Z,45.80
2024-01-15T07:52:37.407Z,49.80
2024-01-15T07:53:37.272Z,51.00
2024-01-15T07:54:37.290Z,50.90
2024-01-15T07:55:37.357Z,50.60
2024-01-15T07:56:37.241Z,44.90
2024-01-15T07:57:37.352Z,50.40
2024-01-15T07:58:37.247Z,51.70
2024-01-15T07:59:37.248Z,47.40
2024-01-15T08:00:37.227Z,48.20
2024-01-15T08:01:37.248Z,52.90
2024-01-15T08:02:38.022Z,47.40
2024-01-15T08:03:37.218Z,49.10
2024-01-15T08:04:37.153Z,49.70
2024-01-15T08:05:37.190Z,60.60
2024-01-15T08:06:37.227Z,58.90
2024-01-15T08:07:37.092Z,66.80
2024-01-15T08:08:37.108Z,52.20
2024-01-15T08:09:37.171Z,62.10
2024-01-15T08:10:37.030Z,63.60
2024-01-15T08:11:37.070Z,55.20
2024-01-15T08:12:37.058Z,63.50
2024-01-15T08:13:37.067Z,61.50
2024-01-15T08:14:36.976Z,58.50
2024-01-15T08:15:37.097Z,63.40
2024-01-15T08:16:37.000Z,60.90
2024-01-15T08:17:37.053Z,54.40
2024-01-15T08:18:37.098Z,57.40
2024-01-15T08:19:37.105Z,53.40
2024-01-15T08:20:36.968Z,61.90
2024-01-15T08:21:37.002Z,68.90
2024-01-15T08:22:36.899Z,118.80
2024-01-15T08:23:36.890Z,83.90
2024-01-15T08:24:36.862Z,94.00
2024-01-15T08:25:36.932Z,113.00
2024-01-15T08:26:36.886Z,98.80
2024-01-15T08:27:36.866Z,64.70
2024-01-15T08:28:39.529Z,60.90
2024-01-15T08:29:36.821Z,58.40
2024-01-15T08:30:36.888Z,54.60
2024-01-15T08:31:37.039Z,57.40
2024-01-15T08:32:36.788Z,58.80
2024-01-15T08:33:36.888Z,59.50
2024-01-15T08:34:36.784Z,57.80
2024-01-15T08:35:36.826Z,78.10
2024-01-15T08:36:36.777Z,64.50
2024-01-15T08:37:36.734Z,55.30
2024-01-15T08:38:36.698Z,63.40
2024-01-15T08:39:36.810Z,52.90
2024-01-15T08:40:36.678Z,58.00
2024-01-15T08:41:36.680Z,40.40
2024-01-15T08:42:36.718Z,50.40
2024-01-15T08:43:36.675Z,53.60
2024-01-15T08:44:36.608Z,54.10
2024-01-15T08:45:36.748Z,55.30
2024-01-15T08:46:36.588Z,54.90
2024-01-15T08:47:36.623Z,58.40
2024-01-15T08:48:36.682Z,54.10
2024-01-15T08:49:36.710Z,60.20
2024-01-15T08:50:36.548Z,68.30
2024-01-15T08:51:36.552Z,67.70
2024-01-15T08:52:36.928Z,65.80
2024-01-15T08:53:36.512Z,80.60
2024-01-15T08:54:36.542Z,72.90
2024-01-15T08:55:36.515Z,63.10
2024-01-15T08:56:36.478Z,59.90
2024-01-15T08:57:36.561Z,63.60
2024-01-15T08:58:36.435Z,73.40
2024-01-15T08:59:36.443Z,63.10
2024-01-15T09:00:36.545Z,65.70
2024-01-15T09:01:36.528Z,73.50
2024-01-15T09:02:36.431Z,69.30
2024-01-15T09:03:36.465Z,76.80
2024-01-15T09:04:36.541Z,78.50
2024-01-15T09:05:36.421Z,58.40
2024-01-15T09:06:36.336Z,62.70
2024-01-15T09:07:36.369Z,58.70
2024-01-15T09:08:36.329Z,63.50
2024-01-15T09:09:36.473Z,54.70
2024-01-15T09:10:36.273Z,55.90
2024-01-15T09:11:36.273Z,61.70
2024-01-15T09:12:36.276Z,67.90
2024-01-15T09:13:36.275Z,54.00
2024-01-15T09:14:37.492Z,55.00
2024-01-15T09:15:36.369Z,54.90
2024-01-15T09:16:36.241Z,57.50
2024-01-15T09:17:36.227Z,48.70
2024-01-15T09:18:36.268Z,54.50
2024-01-15T09:19:36.297Z,50.70
2024-01-15T09:20:36.203Z,49.40
2024-01-15T09:21:36.221Z,48.40
2024-01-15T09:22:36.163Z,53.10
2024-01-15T09:23:36.152Z,57.50
2024-01-15T09:24:36.150Z,45.20
2024-01-15T09:25:36.078Z,55.30
2024-01-15T09:26:36.114Z,46.30
2024-01-15T09:27:36.071Z,52.80
2024-01-15T09:28:36.108Z,58.70
2024-01-15T09:29:36.091Z,51.50
2024-01-15T09:30:37.086Z,43.70
2024-01-15T09:31:36.092Z,43.00
2024-01-15T09:32:36.018Z,43.40
2024-01-15T09:33:36.064Z,53.50
2024-01-15T09:34:36.213Z,59.10
2024-01-15T09:35:35.963Z,49.40
2024-01-15T09:36:36.011Z,51.20
2024-01-15T09:37:44.720Z,47.80
2024-01-15T09:38:35.945Z,50.90
2024-01-15T09:39:35.945Z,45.50
2024-01-15T09:40:35.928Z,45.90
2024-01-15T09:41:35.877Z,47.80
2024-01-15T09:42:35.947Z,52.40
2024-01-15T09:43:35.860Z,47.20
2024-01-15T09:44:35.866Z,54.80
2024-01-15T09:45:36.454Z,52.10
2024-01-15T09:46:35.862Z,48.00
2024-01-15T09:47:35.853Z,50.40
2024-01-15T09:48:36.029Z,54.60
2024-01-15T09:49:35.831Z,54.40
2024-01-15T09:50:35.774Z,45.80
2024-01-15T09:51:35.788Z,49.10
2024-01-15T09:52:35.768Z,47.50
2024-01-15T09:53:35.742Z,55.50
2024-01-15T09:54:35.783Z,50.20
2024-01-15T09:55:35.747Z,53.50
2024-01-15T09:56:35.730Z,58.70
2024-01-15T09:57:35.689Z,47.30
2024-01-15T09:58:35.687Z,47.70
2024-01-15T09:59:35.716Z,45.40
2024-01-15T10:00:35.734Z,51.00
2024-01-15T10:01:35.651Z,46.30
2024-01-15T10:02:35.648Z,45.80
2024-01-15T10:03:35.742Z,46.30
2024-01-15T10:04:35.693Z,45.70
2024-01-15T10:05:35.598Z,47.40
2024-01-15T10:06:35.680Z,46.00
2024-01-15T10:07:35.724Z,44.10
2024-01-15T10:08:35.571Z,44.20
2024-01-15T10:09:35.533Z,47.00
2024-01-15T10:10:35.583Z,45.90
2024-01-15T10:11:35.500Z,45.00
2024-01-15T10:12:36.496Z,50.20
2024-01-15T10:13:35.507Z,46.60
2024-01-15T10:14:35.485Z,46.00
2024-01-15T10:15:35.458Z,45.20
2024-01-15T10:16:36.443Z,50.20
2024-01-15T10:17:35.534Z,46.30
2024-01-15T10:18:35.566Z,43.20
2024-01-15T10:19:35.409Z,41.70
2024-01-15T10:20:35.404Z,42.40
2024-01-15T10:21:35.422Z,43.00
2024-01-15T10:22:35.351Z,55.10
2024-01-15T10:23:35.341Z,47.80
2024-01-15T10:24:35.386Z,47.00
2024-01-15T10:25:35.314Z,47.70
2024-01-15T10:26:35.337Z,41.90
2024-01-15T10:27:35.328Z,42.30
2024-01-15T10:28:35.319Z,44.10
2024-01-15T10:29:35.231Z,55.00
2024-01-15T10:30:35.472Z,124.80
2024-01-15T10:31:35.345Z,108.10
2024-01-15T10:32:35.315Z,51.80
2024-01-15T10:33:35.348Z,43.10
2024-01-15T10:34:35.336Z,48.30
2024-01-15T10:35:35.258Z,47.30
2024-01-15T10:36:35.230Z,40.60
2024-01-15T10:37:35.183Z,43.90
2024-01-15T10:38:35.134Z,48.00
2024-01-15T10:39:35.211Z,41.50
2024-01-15T10:40:35.102Z,46.90
2024-01-15T10:41:35.184Z,45.30
2024-01-15T10:42:35.152Z,45.10
2024-01-15T10:43:35.139Z,54.00
2024-01-15T10:44:35.113Z,49.40
2024-01-15T10:45:35.111Z,45.20
2024-01-15T10:46:35.709Z,50.90
2024-01-15T10:47:35.053Z,44.00
2024-01-15T10:48:35.119Z,47.90
2024-01-15T10:49:35.122Z,49.30
2024-01-15T10:50:34.992Z,51.50
2024-01-15T10:51:35.063Z,49.80
2024-01-15T10:52:34.968Z,48.90
2024-01-15T10:53:34.987Z,52.90
2024-01-15T10:54:35.042Z,47.80
2024-01-15T10:55:34.940Z,47.30
2024-01-15T10:56:34.920Z,52.50
2024-01-15T10:57:34.940Z,44.80
2024-01-15T10:58:34.888Z,56.00
2024-01-15T10:59:34.884Z,51.10
2024-01-15T11:00:34.989Z,49.90
2024-01-15T11:01:34.976Z,49.30
2024-01-15T11:02:34.864Z,52.40
2024-01-15T11:03:34.982Z,55.10
2024-01-15T11:04:34.915Z,57.30
2024-01-15T11:05:34.827Z,50.60
2024-01-15T11:06:34.867Z,51.10
2024-01-15T11:07:34.845Z,54.60
2024-01-15T11:08:34.761Z,50.80
2024-01-15T11:09:34.782Z,56.00
2024-01-15T11:10:34.725Z,53.70
2024-01-15T11:11:34.798Z,50.60
2024-01-15T11:12:34.764Z,55.70
2024-01-15T11:13:34.725Z,59.10
2024-01-15T11:14:34.672Z,57.40
2024-01-15T11:15:34.745Z,55.60
2024-01-15T11:16:34.644Z,59.70
2024-01-15T11:17:34.722Z,60.90
2024-01-15T11:18:36.994Z,62.50
2024-01-15T11:19:34.766Z,57.30
2024-01-15T11:20:34.592Z,60.80
2024-01-15T11:21:34.663Z,62.20
2024-01-15T11:22:34.623Z,57.50
2024-01-15T11:23:34.583Z,65.90
2024-01-15T11:24:34.558Z,61.50
2024-01-15T11:25:34.576Z,61.70
2024-01-15T11:26:34.549Z,59.40
2024-01-15T11:27:34.560Z,64.50
2024-01-15T11:28:34.493Z,66.80
2024-01-15T11:29:34.513Z,62.50
2024-01-15T11:30:34.621Z,60.70
2024-01-15T11:31:34.549Z,58.10
2024-01-15T11:32:34.536Z,57.30
2024-01-15T11:33:34.610Z,57.10
2024-01-15T11:34:34.528Z,57.50
2024-01-15T11:35:34.414Z,59.60
2024-01-15T11:36:34.413Z,65.60
2024-01-15T11:37:34.427Z,61.10
2024-01-15T11:38:34.374Z,70.70
2024-01-15T11:39:34.432Z,64.70
2024-01-15T11:40:34.490Z,55.50
2024-01-15T11:41:35.228Z,54.30
2024-01-15T11:42:34.364Z,52.80
2024-01-15T11:43:34.324Z,55.40
2024-01-15T11:44:34.952Z,54.20
2024-01-15T11:45:34.368Z,57.70
2024-01-15T11:46:34.270Z,51.00
2024-01-15T11:47:34.346Z,50.80
2024-01-15T11:48:34.276Z,52.80
2024-01-15T11:49:34.361Z,46.50
2024-01-15T11:50:34.247Z,51.00
2024-01-15T11:51:34.254Z,49.90
2024-01-15T11:52:34.181Z,50.90
2024-01-15T11:53:34.185Z,48.40
2024-01-15T11:54:34.288Z,48.90
2024-01-15T11:55:34.173Z,49.60
2024-01-15T11:56:34.132Z,47.10
2024-01-15T11:57:34.159Z,48.60
2024-01-15T11:58:34.097Z,44.90
2024-01-15T11:59:34.161Z,46.60
2024-01-15T12:00:34.140Z,45.00
2024-01-15T12:01:34.127Z,46.40
2024-01-15T12:02:34.066Z,44.00
2024-01-15T12:03:34.151Z,41.10
2024-01-15T12:04:34.120Z,44.20
2024-01-15T12:05:34.045Z,43.20
2024-01-15T12:06:34.097Z,41.70
2024-01-15T12:07:34.062Z,38.10
2024-01-15T12:08:33.989Z,39.30
2024-01-15T12:09:34.039Z,34.50
2024-01-15T12:10:33.948Z,38.80
2024-01-15T12:11:33.962Z,41.00
2024-01-15T12:12:33.987Z,40.90
2024-01-15T12:13:33.981Z,42.20
2024-01-15T12:14:33.886Z,43.40
2024-01-15T12:15:34.021Z,38.70
2024-01-15T12:16:33.891Z,39.00
2024-01-15T12:17:33.938Z,40.00
2024-01-15T12:18:33.951Z,38.00
2024-01-15T12:19:33.880Z,39.80
2024-01-15T12:20:33.816Z,33.50
2024-01-15T12:21:33.928Z,38.50
2024-01-15T12:22:44.969Z,33.60
2024-01-15T12:23:33.833Z,33.70
2024-01-15T12:24:33.940Z,35.80
2024-01-15T12:25:33.768Z,38.50
2024-01-15T12:26:33.805Z,33.60
2024-01-15T12:27:33.799Z,34.30
2024-01-15T12:28:33.730Z,32.20
2024-01-15T12:29:33.765Z,35.30
2024-01-15T12:30:33.874Z,31.40
2024-01-15T12:31:33.787Z,33.20
2024-01-15T12:32:33.666Z,31.10
2024-01-15T12:33:33.753Z,32.10
2024-01-15T12:34:33.806Z,30.50
2024-01-15T12:35:33.645Z,32.40
2024-01-15T12:36:33.651Z,28.50
2024-01-15T12:37:33.636Z,35.90
2024-01-15T12:38:33.605Z,30.60
2024-01-15T12:39:33.723Z,28.90
2024-01-15T12:40:33.634Z,27.80
2024-01-15T12:41:33.608Z,30.60
2024-01-15T12:42:33.578Z,32.00
2024-01-15T12:43:33.555Z,33.60
2024-01-15T12:44:33.534Z,36.30
2024-01-15T12:45:33.637Z,51.60
2024-01-15T12:46:33.496Z,37.90
2024-01-15T12:47:33.571Z,33.90
2024-01-15T12:48:33.584Z,32.00
2024-01-15T12:49:33.562Z,32.30
2024-01-15T12:50:33.424Z,31.00
2024-01-15T12:51:33.468Z,35.80
2024-01-15T12:52:33.420Z,30.70